EGLC/LCY METAR and TAF weather

Enter ICAO airport designator
Station Type Date Time Source
EGLC METAR 2021/07/26 12:50 UTC NOAA

EGLC 261250Z AUTO 12004KT 070V190 9999 FEW029 24/16 Q1010


Station Type Date Time Source
EGLC Decoded METAR 2021/07/26 12:50 UTC NOAA

London City Airport, United Kingdom (EGLC) 51-30N 000-30W
Jul 26, 2021 - 08:50 AM EDT / 2021.07.26 1250 UTC
Wind: from the ESE (120 degrees) at 5 MPH (4 KT) (direction variable):0
Visibility: greater than 7 mile(s):0
Sky conditions: mostly clear
Temperature: 75 F (24 C)
Dew Point: 60 F (16 C)
Relative Humidity: 60%
Pressure (altimeter): 29.83 in. Hg (1010 hPa)
ob: EGLC 261250Z AUTO 12004KT 070V190 9999 FEW029 24/16 Q1010
cycle: 13

Station Type Date Time Source
EGLC TAF 2018/10/15 21:30 UTC NOAA

TAF EGLC 152119Z 1521/1621 CNL

Example: see airport list